sensor_id;sensor_type;location;lat;lon;timestamp;P1;durP1;ratioP1;P2;durP2;ratioP2
19221;SDS011;9745;50.828;4.378;2022-07-29T00:00:45;3.60;;;1.63;;
19221;SDS011;9745;50.828;4.378;2022-07-29T00:03:12;5.77;;;1.40;;
19221;SDS011;9745;50.828;4.378;2022-07-29T00:05:38;10.03;;;1.70;;
19221;SDS011;9745;50.828;4.378;2022-07-29T00:08:04;5.43;;;1.57;;
19221;SDS011;9745;50.828;4.378;2022-07-29T00:10:30;3.00;;;1.97;;
19221;SDS011;9745;50.828;4.378;2022-07-29T00:12:56;4.80;;;1.80;;
19221;SDS011;9745;50.828;4.378;2022-07-29T00:15:23;5.17;;;1.57;;
19221;SDS011;9745;50.828;4.378;2022-07-29T00:17:49;8.47;;;1.80;;
19221;SDS011;9745;50.828;4.378;2022-07-29T00:20:15;4.93;;;1.50;;
19221;SDS011;9745;50.828;4.378;2022-07-29T00:22:41;6.67;;;1.67;;
19221;SDS011;9745;50.828;4.378;2022-07-29T00:25:07;4.87;;;1.60;;
19221;SDS011;9745;50.828;4.378;2022-07-29T00:27:34;6.57;;;1.87;;
19221;SDS011;9745;50.828;4.378;2022-07-29T00:30:00;5.53;;;1.77;;
19221;SDS011;9745;50.828;4.378;2022-07-29T00:32:26;6.03;;;1.73;;
19221;SDS011;9745;50.828;4.378;2022-07-29T00:34:52;4.77;;;1.67;;
19221;SDS011;9745;50.828;4.378;2022-07-29T00:37:37;5.27;;;1.40;;
19221;SDS011;9745;50.828;4.378;2022-07-29T00:40:03;2.40;;;1.60;;
19221;SDS011;9745;50.828;4.378;2022-07-29T00:42:29;5.90;;;2.17;;
19221;SDS011;9745;50.828;4.378;2022-07-29T00:44:55;2.67;;;1.30;;
19221;SDS011;9745;50.828;4.378;2022-07-29T00:47:21;6.33;;;1.47;;
19221;SDS011;9745;50.828;4.378;2022-07-29T00:49:47;3.40;;;1.43;;
19221;SDS011;9745;50.828;4.378;2022-07-29T00:52:13;3.20;;;1.57;;
19221;SDS011;9745;50.828;4.378;2022-07-29T00:54:39;3.53;;;1.40;;
19221;SDS011;9745;50.828;4.378;2022-07-29T00:57:06;4.27;;;1.50;;
19221;SDS011;9745;50.828;4.378;2022-07-29T00:59:33;4.60;;;1.93;;
19221;SDS011;9745;50.828;4.378;2022-07-29T01:01:59;4.30;;;1.50;;
19221;SDS011;9745;50.828;4.378;2022-07-29T01:04:25;4.73;;;1.50;;
19221;SDS011;9745;50.828;4.378;2022-07-29T01:06:51;5.17;;;1.77;;
19221;SDS011;9745;50.828;4.378;2022-07-29T01:09:19;5.70;;;1.47;;
19221;SDS011;9745;50.828;4.378;2022-07-29T01:11:45;3.27;;;1.60;;
19221;SDS011;9745;50.828;4.378;2022-07-29T01:14:13;3.10;;;1.47;;
19221;SDS011;9745;50.828;4.378;2022-07-29T01:17:04;4.37;;;1.80;;
19221;SDS011;9745;50.828;4.378;2022-07-29T01:21:59;5.17;;;1.70;;
19221;SDS011;9745;50.828;4.378;2022-07-29T01:24:39;7.80;;;1.80;;
19221;SDS011;9745;50.828;4.378;2022-07-29T01:30:00;5.07;;;1.70;;
19221;SDS011;9745;50.828;4.378;2022-07-29T01:32:28;4.83;;;1.67;;
19221;SDS011;9745;50.828;4.378;2022-07-29T01:37:42;8.13;;;2.23;;
19221;SDS011;9745;50.828;4.378;2022-07-29T01:40:29;5.60;;;1.63;;
19221;SDS011;9745;50.828;4.378;2022-07-29T01:42:57;5.60;;;2.03;;
19221;SDS011;9745;50.828;4.378;2022-07-29T01:45:28;4.93;;;1.67;;
19221;SDS011;9745;50.828;4.378;2022-07-29T01:48:00;5.73;;;1.87;;
19221;SDS011;9745;50.828;4.378;2022-07-29T01:50:34;3.20;;;2.03;;
19221;SDS011;9745;50.828;4.378;2022-07-29T01:53:02;2.40;;;1.30;;
19221;SDS011;9745;50.828;4.378;2022-07-29T01:55:31;5.57;;;1.80;;
19221;SDS011;9745;50.828;4.378;2022-07-29T01:57:58;6.23;;;1.60;;
19221;SDS011;9745;50.828;4.378;2022-07-29T02:00:25;3.20;;;1.50;;
19221;SDS011;9745;50.828;4.378;2022-07-29T02:02:51;5.27;;;1.83;;
19221;SDS011;9745;50.828;4.378;2022-07-29T02:05:19;3.63;;;1.73;;
19221;SDS011;9745;50.828;4.378;2022-07-29T02:07:46;5.40;;;1.67;;
19221;SDS011;9745;50.828;4.378;2022-07-29T02:10:13;2.63;;;1.60;;
19221;SDS011;9745;50.828;4.378;2022-07-29T02:12:40;4.23;;;1.40;;
19221;SDS011;9745;50.828;4.378;2022-07-29T02:15:07;4.17;;;1.63;;
19221;SDS011;9745;50.828;4.378;2022-07-29T02:17:37;5.67;;;1.60;;
19221;SDS011;9745;50.828;4.378;2022-07-29T02:20:05;3.30;;;1.60;;
19221;SDS011;9745;50.828;4.378;2022-07-29T02:22:31;8.17;;;1.90;;
19221;SDS011;9745;50.828;4.378;2022-07-29T02:24:59;4.03;;;1.97;;
19221;SDS011;9745;50.828;4.378;2022-07-29T02:27:25;4.77;;;1.67;;
19221;SDS011;9745;50.828;4.378;2022-07-29T02:29:52;2.50;;;1.60;;
19221;SDS011;9745;50.828;4.378;2022-07-29T02:32:19;7.37;;;1.77;;
19221;SDS011;9745;50.828;4.378;2022-07-29T02:34:47;3.33;;;1.53;;
19221;SDS011;9745;50.828;4.378;2022-07-29T02:37:13;5.53;;;1.90;;
19221;SDS011;9745;50.828;4.378;2022-07-29T02:39:40;4.03;;;1.50;;
19221;SDS011;9745;50.828;4.378;2022-07-29T02:42:08;3.70;;;1.80;;
19221;SDS011;9745;50.828;4.378;2022-07-29T02:44:35;4.97;;;1.93;;
19221;SDS011;9745;50.828;4.378;2022-07-29T02:47:04;3.63;;;1.63;;
19221;SDS011;9745;50.828;4.378;2022-07-29T02:52:28;5.93;;;1.67;;
19221;SDS011;9745;50.828;4.378;2022-07-29T02:57:54;4.33;;;1.80;;
19221;SDS011;9745;50.828;4.378;2022-07-29T03:00:23;2.63;;;1.60;;
19221;SDS011;9745;50.828;4.378;2022-07-29T03:02:52;3.50;;;2.27;;
19221;SDS011;9745;50.828;4.378;2022-07-29T03:05:19;6.70;;;2.10;;
19221;SDS011;9745;50.828;4.378;2022-07-29T03:07:47;7.07;;;2.17;;
19221;SDS011;9745;50.828;4.378;2022-07-29T03:10:14;4.13;;;1.60;;
19221;SDS011;9745;50.828;4.378;2022-07-29T03:12:40;3.77;;;1.70;;
19221;SDS011;9745;50.828;4.378;2022-07-29T03:15:06;7.80;;;1.87;;
19221;SDS011;9745;50.828;4.378;2022-07-29T03:17:33;5.00;;;1.83;;
19221;SDS011;9745;50.828;4.378;2022-07-29T03:19:59;3.10;;;1.53;;
19221;SDS011;9745;50.828;4.378;2022-07-29T03:22:25;4.97;;;1.73;;
19221;SDS011;9745;50.828;4.378;2022-07-29T03:24:51;7.13;;;2.20;;
19221;SDS011;9745;50.828;4.378;2022-07-29T03:27:17;6.80;;;1.70;;
19221;SDS011;9745;50.828;4.378;2022-07-29T03:29:43;5.17;;;2.23;;
19221;SDS011;9745;50.828;4.378;2022-07-29T03:32:09;2.97;;;1.80;;
19221;SDS011;9745;50.828;4.378;2022-07-29T03:34:36;4.17;;;1.63;;
19221;SDS011;9745;50.828;4.378;2022-07-29T03:37:03;2.97;;;1.50;;
19221;SDS011;9745;50.828;4.378;2022-07-29T03:39:29;4.97;;;1.77;;
19221;SDS011;9745;50.828;4.378;2022-07-29T03:41:57;5.37;;;1.63;;
19221;SDS011;9745;50.828;4.378;2022-07-29T03:44:25;8.40;;;1.80;;
19221;SDS011;9745;50.828;4.378;2022-07-29T03:46:51;9.87;;;3.00;;
19221;SDS011;9745;50.828;4.378;2022-07-29T03:49:19;5.30;;;1.90;;
19221;SDS011;9745;50.828;4.378;2022-07-29T03:51:47;7.60;;;1.90;;
19221;SDS011;9745;50.828;4.378;2022-07-29T03:54:13;5.03;;;2.13;;
19221;SDS011;9745;50.828;4.378;2022-07-29T03:56:40;7.70;;;2.20;;
19221;SDS011;9745;50.828;4.378;2022-07-29T03:59:07;4.60;;;1.90;;
19221;SDS011;9745;50.828;4.378;2022-07-29T04:01:34;7.63;;;1.70;;
19221;SDS011;9745;50.828;4.378;2022-07-29T04:04:03;4.07;;;2.17;;
19221;SDS011;9745;50.828;4.378;2022-07-29T04:06:36;4.63;;;2.00;;
19221;SDS011;9745;50.828;4.378;2022-07-29T04:09:03;4.10;;;1.70;;
19221;SDS011;9745;50.828;4.378;2022-07-29T04:11:29;6.57;;;1.90;;
19221;SDS011;9745;50.828;4.378;2022-07-29T04:13:55;8.60;;;2.17;;
19221;SDS011;9745;50.828;4.378;2022-07-29T04:16:21;7.33;;;1.90;;
19221;SDS011;9745;50.828;4.378;2022-07-29T04:18:47;5.97;;;1.97;;
19221;SDS011;9745;50.828;4.378;2022-07-29T04:21:13;7.87;;;2.23;;
19221;SDS011;9745;50.828;4.378;2022-07-29T04:23:39;5.73;;;2.20;;
19221;SDS011;9745;50.828;4.378;2022-07-29T04:26:06;4.03;;;2.20;;
19221;SDS011;9745;50.828;4.378;2022-07-29T04:28:34;6.50;;;2.30;;
19221;SDS011;9745;50.828;4.378;2022-07-29T04:31:00;6.80;;;2.73;;
19221;SDS011;9745;50.828;4.378;2022-07-29T04:33:26;5.67;;;2.37;;
19221;SDS011;9745;50.828;4.378;2022-07-29T04:35:52;6.00;;;1.93;;
19221;SDS011;9745;50.828;4.378;2022-07-29T04:38:18;7.27;;;2.03;;
19221;SDS011;9745;50.828;4.378;2022-07-29T04:40:45;15.53;;;2.87;;
19221;SDS011;9745;50.828;4.378;2022-07-29T04:43:11;9.03;;;2.60;;
19221;SDS011;9745;50.828;4.378;2022-07-29T04:45:37;5.00;;;2.50;;
19221;SDS011;9745;50.828;4.378;2022-07-29T04:48:03;6.60;;;2.37;;
19221;SDS011;9745;50.828;4.378;2022-07-29T04:50:29;5.87;;;2.77;;
19221;SDS011;9745;50.828;4.378;2022-07-29T04:52:55;14.77;;;2.50;;
19221;SDS011;9745;50.828;4.378;2022-07-29T04:55:21;11.17;;;2.53;;
19221;SDS011;9745;50.828;4.378;2022-07-29T04:57:47;4.00;;;2.57;;
19221;SDS011;9745;50.828;4.378;2022-07-29T05:00:13;5.30;;;2.70;;
19221;SDS011;9745;50.828;4.378;2022-07-29T05:02:39;11.10;;;2.80;;
19221;SDS011;9745;50.828;4.378;2022-07-29T05:05:05;10.20;;;3.40;;
19221;SDS011;9745;50.828;4.378;2022-07-29T05:07:32;5.60;;;3.07;;
19221;SDS011;9745;50.828;4.378;2022-07-29T05:09:58;5.13;;;2.93;;
19221;SDS011;9745;50.828;4.378;2022-07-29T05:12:24;8.90;;;2.90;;
19221;SDS011;9745;50.828;4.378;2022-07-29T05:14:51;9.50;;;3.43;;
19221;SDS011;9745;50.828;4.378;2022-07-29T05:17:17;8.40;;;3.03;;
19221;SDS011;9745;50.828;4.378;2022-07-29T05:19:43;7.87;;;2.80;;
19221;SDS011;9745;50.828;4.378;2022-07-29T05:22:09;7.13;;;2.87;;
19221;SDS011;9745;50.828;4.378;2022-07-29T05:24:35;9.97;;;2.97;;
19221;SDS011;9745;50.828;4.378;2022-07-29T05:27:02;6.40;;;3.03;;
19221;SDS011;9745;50.828;4.378;2022-07-29T05:29:28;7.07;;;2.70;;
19221;SDS011;9745;50.828;4.378;2022-07-29T05:31:54;3.47;;;2.47;;
19221;SDS011;9745;50.828;4.378;2022-07-29T05:34:20;5.40;;;3.03;;
19221;SDS011;9745;50.828;4.378;2022-07-29T05:36:46;5.37;;;2.70;;
19221;SDS011;9745;50.828;4.378;2022-07-29T05:39:12;7.63;;;2.80;;
19221;SDS011;9745;50.828;4.378;2022-07-29T05:41:38;3.53;;;2.50;;
19221;SDS011;9745;50.828;4.378;2022-07-29T05:44:05;6.37;;;2.50;;
19221;SDS011;9745;50.828;4.378;2022-07-29T05:46:31;4.80;;;3.00;;
19221;SDS011;9745;50.828;4.378;2022-07-29T05:48:57;5.87;;;2.87;;
19221;SDS011;9745;50.828;4.378;2022-07-29T05:51:23;3.93;;;2.23;;
19221;SDS011;9745;50.828;4.378;2022-07-29T05:53:49;4.90;;;2.37;;
19221;SDS011;9745;50.828;4.378;2022-07-29T05:56:15;5.50;;;2.47;;
19221;SDS011;9745;50.828;4.378;2022-07-29T05:58:41;5.00;;;3.00;;
19221;SDS011;9745;50.828;4.378;2022-07-29T06:01:08;6.40;;;3.20;;
19221;SDS011;9745;50.828;4.378;2022-07-29T06:03:34;5.53;;;2.70;;
19221;SDS011;9745;50.828;4.378;2022-07-29T06:06:02;5.37;;;3.10;;
19221;SDS011;9745;50.828;4.378;2022-07-29T06:08:29;5.80;;;2.40;;
19221;SDS011;9745;50.828;4.378;2022-07-29T06:10:55;4.33;;;2.80;;
19221;SDS011;9745;50.828;4.378;2022-07-29T06:13:21;6.80;;;2.77;;
19221;SDS011;9745;50.828;4.378;2022-07-29T06:15:47;5.10;;;2.80;;
19221;SDS011;9745;50.828;4.378;2022-07-29T06:18:13;7.10;;;2.77;;
19221;SDS011;9745;50.828;4.378;2022-07-29T06:20:39;5.00;;;2.70;;
19221;SDS011;9745;50.828;4.378;2022-07-29T06:23:05;6.70;;;3.07;;
19221;SDS011;9745;50.828;4.378;2022-07-29T06:25:31;4.27;;;2.80;;
19221;SDS011;9745;50.828;4.378;2022-07-29T06:27:59;8.83;;;2.93;;
19221;SDS011;9745;50.828;4.378;2022-07-29T06:30:25;6.23;;;2.80;;
19221;SDS011;9745;50.828;4.378;2022-07-29T06:32:52;5.53;;;3.20;;
19221;SDS011;9745;50.828;4.378;2022-07-29T06:35:18;5.97;;;3.07;;
19221;SDS011;9745;50.828;4.378;2022-07-29T06:37:44;4.73;;;2.90;;
19221;SDS011;9745;50.828;4.378;2022-07-29T06:40:10;8.00;;;3.00;;
19221;SDS011;9745;50.828;4.378;2022-07-29T06:42:55;10.00;;;2.80;;
19221;SDS011;9745;50.828;4.378;2022-07-29T06:45:21;5.80;;;3.03;;
19221;SDS011;9745;50.828;4.378;2022-07-29T06:47:47;6.80;;;2.63;;
19221;SDS011;9745;50.828;4.378;2022-07-29T06:50:14;9.63;;;3.10;;
19221;SDS011;9745;50.828;4.378;2022-07-29T06:52:40;10.40;;;3.10;;
19221;SDS011;9745;50.828;4.378;2022-07-29T06:55:07;6.20;;;2.73;;
19221;SDS011;9745;50.828;4.378;2022-07-29T06:57:33;5.17;;;2.43;;
19221;SDS011;9745;50.828;4.378;2022-07-29T06:59:59;5.77;;;2.50;;
19221;SDS011;9745;50.828;4.378;2022-07-29T07:02:25;3.37;;;2.13;;
19221;SDS011;9745;50.828;4.378;2022-07-29T07:04:51;4.83;;;2.63;;
19221;SDS011;9745;50.828;4.378;2022-07-29T07:07:17;11.30;;;3.00;;
19221;SDS011;9745;50.828;4.378;2022-07-29T07:09:43;3.50;;;2.50;;
19221;SDS011;9745;50.828;4.378;2022-07-29T07:12:09;6.07;;;2.50;;
19221;SDS011;9745;50.828;4.378;2022-07-29T07:14:36;7.33;;;3.47;;
19221;SDS011;9745;50.828;4.378;2022-07-29T07:17:02;5.60;;;2.90;;
19221;SDS011;9745;50.828;4.378;2022-07-29T07:19:28;3.90;;;2.73;;
19221;SDS011;9745;50.828;4.378;2022-07-29T07:21:55;7.50;;;2.73;;
19221;SDS011;9745;50.828;4.378;2022-07-29T07:24:21;7.60;;;2.30;;
19221;SDS011;9745;50.828;4.378;2022-07-29T07:26:47;6.07;;;3.00;;
19221;SDS011;9745;50.828;4.378;2022-07-29T07:29:13;6.37;;;2.70;;
19221;SDS011;9745;50.828;4.378;2022-07-29T07:31:41;6.23;;;2.80;;
19221;SDS011;9745;50.828;4.378;2022-07-29T07:34:07;4.33;;;2.63;;
19221;SDS011;9745;50.828;4.378;2022-07-29T07:36:33;6.07;;;2.70;;
19221;SDS011;9745;50.828;4.378;2022-07-29T07:38:59;3.77;;;2.40;;
19221;SDS011;9745;50.828;4.378;2022-07-29T07:41:26;7.10;;;2.93;;
19221;SDS011;9745;50.828;4.378;2022-07-29T07:43:52;5.77;;;2.83;;
19221;SDS011;9745;50.828;4.378;2022-07-29T07:46:18;4.80;;;2.50;;
19221;SDS011;9745;50.828;4.378;2022-07-29T07:48:44;6.23;;;3.13;;
19221;SDS011;9745;50.828;4.378;2022-07-29T07:51:10;8.33;;;2.77;;
19221;SDS011;9745;50.828;4.378;2022-07-29T07:53:37;4.40;;;2.20;;
19221;SDS011;9745;50.828;4.378;2022-07-29T07:56:03;3.93;;;2.10;;
19221;SDS011;9745;50.828;4.378;2022-07-29T07:58:31;4.97;;;2.33;;
19221;SDS011;9745;50.828;4.378;2022-07-29T08:00:57;5.10;;;2.57;;
19221;SDS011;9745;50.828;4.378;2022-07-29T08:03:23;7.27;;;3.40;;
19221;SDS011;9745;50.828;4.378;2022-07-29T08:05:49;6.05;;;3.00;;
19221;SDS011;9745;50.828;4.378;2022-07-29T08:08:19;6.65;;;3.17;;
19221;SDS011;9745;50.828;4.378;2022-07-29T08:10:45;3.92;;;2.75;;
19221;SDS011;9745;50.828;4.378;2022-07-29T08:13:17;6.93;;;3.13;;
19221;SDS011;9745;50.828;4.378;2022-07-29T08:15:44;7.75;;;2.75;;
19221;SDS011;9745;50.828;4.378;2022-07-29T08:18:11;7.88;;;3.22;;
19221;SDS011;9745;50.828;4.378;2022-07-29T08:20:37;5.55;;;2.97;;
19221;SDS011;9745;50.828;4.378;2022-07-29T08:23:04;5.93;;;3.08;;
19221;SDS011;9745;50.828;4.378;2022-07-29T08:25:31;5.22;;;2.50;;
19221;SDS011;9745;50.828;4.378;2022-07-29T08:27:57;13.32;;;2.60;;
19221;SDS011;9745;50.828;4.378;2022-07-29T08:30:24;9.60;;;2.47;;
19221;SDS011;9745;50.828;4.378;2022-07-29T08:32:50;4.28;;;2.25;;
19221;SDS011;9745;50.828;4.378;2022-07-29T08:35:18;6.15;;;2.45;;
19221;SDS011;9745;50.828;4.378;2022-07-29T08:37:44;7.95;;;2.15;;
19221;SDS011;9745;50.828;4.378;2022-07-29T08:40:10;6.68;;;1.70;;
19221;SDS011;9745;50.828;4.378;2022-07-29T08:42:37;3.40;;;2.15;;
19221;SDS011;9745;50.828;4.378;2022-07-29T08:45:03;3.75;;;1.75;;
19221;SDS011;9745;50.828;4.378;2022-07-29T08:47:30;4.47;;;2.08;;
19221;SDS011;9745;50.828;4.378;2022-07-29T08:49:56;5.40;;;2.10;;
19221;SDS011;9745;50.828;4.378;2022-07-29T08:52:23;4.00;;;1.67;;
19221;SDS011;9745;50.828;4.378;2022-07-29T08:54:50;4.20;;;1.88;;
19221;SDS011;9745;50.828;4.378;2022-07-29T08:57:18;2.85;;;1.65;;
19221;SDS011;9745;50.828;4.378;2022-07-29T08:59:45;3.53;;;1.52;;
19221;SDS011;9745;50.828;4.378;2022-07-29T09:02:12;3.83;;;1.60;;
19221;SDS011;9745;50.828;4.378;2022-07-29T09:04:41;6.63;;;1.50;;
19221;SDS011;9745;50.828;4.378;2022-07-29T09:07:07;1.75;;;1.23;;
19221;SDS011;9745;50.828;4.378;2022-07-29T09:09:34;2.28;;;1.33;;
19221;SDS011;9745;50.828;4.378;2022-07-29T09:12:00;3.25;;;1.48;;
19221;SDS011;9745;50.828;4.378;2022-07-29T09:14:26;3.20;;;1.42;;
19221;SDS011;9745;50.828;4.378;2022-07-29T09:16:54;3.65;;;1.42;;
19221;SDS011;9745;50.828;4.378;2022-07-29T09:19:29;3.95;;;1.52;;
19221;SDS011;9745;50.828;4.378;2022-07-29T09:21:56;4.88;;;1.75;;
19221;SDS011;9745;50.828;4.378;2022-07-29T09:24:22;4.13;;;1.50;;
19221;SDS011;9745;50.828;4.378;2022-07-29T09:26:48;6.88;;;1.95;;
19221;SDS011;9745;50.828;4.378;2022-07-29T09:29:15;5.68;;;1.38;;
19221;SDS011;9745;50.828;4.378;2022-07-29T09:31:45;5.22;;;1.50;;
19221;SDS011;9745;50.828;4.378;2022-07-29T09:34:13;3.05;;;1.42;;
19221;SDS011;9745;50.828;4.378;2022-07-29T09:36:40;3.75;;;1.50;;
19221;SDS011;9745;50.828;4.378;2022-07-29T09:39:06;5.10;;;1.58;;
19221;SDS011;9745;50.828;4.378;2022-07-29T09:41:45;4.78;;;1.67;;
19221;SDS011;9745;50.828;4.378;2022-07-29T09:44:11;2.92;;;1.23;;
19221;SDS011;9745;50.828;4.378;2022-07-29T09:46:38;3.97;;;1.55;;
19221;SDS011;9745;50.828;4.378;2022-07-29T09:49:09;4.15;;;1.48;;
19221;SDS011;9745;50.828;4.378;2022-07-29T09:51:36;5.50;;;1.50;;
19221;SDS011;9745;50.828;4.378;2022-07-29T09:54:20;4.43;;;1.40;;
19221;SDS011;9745;50.828;4.378;2022-07-29T09:56:47;3.30;;;1.33;;
19221;SDS011;9745;50.828;4.378;2022-07-29T09:59:13;3.63;;;1.63;;
19221;SDS011;9745;50.828;4.378;2022-07-29T10:01:39;4.88;;;1.73;;
19221;SDS011;9745;50.828;4.378;2022-07-29T10:04:05;3.25;;;1.60;;
19221;SDS011;9745;50.828;4.378;2022-07-29T10:06:31;4.00;;;1.80;;
19221;SDS011;9745;50.828;4.378;2022-07-29T10:09:10;7.95;;;1.80;;
19221;SDS011;9745;50.828;4.378;2022-07-29T10:11:36;5.90;;;1.85;;
19221;SDS011;9745;50.828;4.378;2022-07-29T10:14:03;6.13;;;1.85;;
19221;SDS011;9745;50.828;4.378;2022-07-29T10:16:30;5.03;;;1.73;;
19221;SDS011;9745;50.828;4.378;2022-07-29T10:18:59;3.53;;;1.65;;
19221;SDS011;9745;50.828;4.378;2022-07-29T10:21:26;4.95;;;1.90;;
19221;SDS011;9745;50.828;4.378;2022-07-29T10:23:52;5.47;;;2.00;;
19221;SDS011;9745;50.828;4.378;2022-07-29T10:26:19;6.50;;;1.80;;
19221;SDS011;9745;50.828;4.378;2022-07-29T10:28:45;3.60;;;1.93;;
19221;SDS011;9745;50.828;4.378;2022-07-29T10:31:33;3.93;;;1.53;;
19221;SDS011;9745;50.828;4.378;2022-07-29T10:34:18;5.40;;;1.90;;
19221;SDS011;9745;50.828;4.378;2022-07-29T10:36:56;3.47;;;1.87;;
19221;SDS011;9745;50.828;4.378;2022-07-29T10:42:17;5.73;;;1.80;;
19221;SDS011;9745;50.828;4.378;2022-07-29T10:44:44;5.43;;;1.37;;
19221;SDS011;9745;50.828;4.378;2022-07-29T10:50:05;3.30;;;1.73;;
19221;SDS011;9745;50.828;4.378;2022-07-29T10:55:33;4.93;;;1.63;;
19221;SDS011;9745;50.828;4.378;2022-07-29T10:58:14;6.13;;;1.80;;
19221;SDS011;9745;50.828;4.378;2022-07-29T11:00:40;4.10;;;2.23;;
19221;SDS011;9745;50.828;4.378;2022-07-29T11:03:06;8.57;;;2.50;;
19221;SDS011;9745;50.828;4.378;2022-07-29T11:05:52;5.50;;;2.17;;
19221;SDS011;9745;50.828;4.378;2022-07-29T11:08:19;6.40;;;1.97;;
19221;SDS011;9745;50.828;4.378;2022-07-29T11:10:51;5.00;;;1.93;;
19221;SDS011;9745;50.828;4.378;2022-07-29T11:16:02;3.80;;;1.73;;
19221;SDS011;9745;50.828;4.378;2022-07-29T11:18:30;3.60;;;1.40;;
19221;SDS011;9745;50.828;4.378;2022-07-29T11:20:56;8.53;;;2.80;;
19221;SDS011;9745;50.828;4.378;2022-07-29T11:28:43;6.63;;;1.97;;
19221;SDS011;9745;50.828;4.378;2022-07-29T11:31:14;5.00;;;2.73;;
19221;SDS011;9745;50.828;4.378;2022-07-29T11:33:41;10.50;;;3.53;;
19221;SDS011;9745;50.828;4.378;2022-07-29T11:36:08;5.93;;;2.30;;
19221;SDS011;9745;50.828;4.378;2022-07-29T11:38:35;5.67;;;2.27;;
19221;SDS011;9745;50.828;4.378;2022-07-29T11:43:46;7.00;;;2.33;;
19221;SDS011;9745;50.828;4.378;2022-07-29T11:46:12;7.87;;;2.70;;
19221;SDS011;9745;50.828;4.378;2022-07-29T11:48:42;7.70;;;2.90;;
19221;SDS011;9745;50.828;4.378;2022-07-29T11:51:09;6.27;;;3.00;;
19221;SDS011;9745;50.828;4.378;2022-07-29T11:53:36;5.37;;;3.23;;
19221;SDS011;9745;50.828;4.378;2022-07-29T11:56:02;8.47;;;3.77;;
19221;SDS011;9745;50.828;4.378;2022-07-29T11:58:30;4.60;;;2.80;;
19221;SDS011;9745;50.828;4.378;2022-07-29T12:00:56;9.03;;;3.10;;
19221;SDS011;9745;50.828;4.378;2022-07-29T12:03:24;3.50;;;1.93;;
19221;SDS011;9745;50.828;4.378;2022-07-29T12:05:50;8.47;;;3.10;;
19221;SDS011;9745;50.828;4.378;2022-07-29T12:08:21;5.33;;;2.80;;
19221;SDS011;9745;50.828;4.378;2022-07-29T12:10:48;6.80;;;2.90;;
19221;SDS011;9745;50.828;4.378;2022-07-29T12:13:15;7.53;;;2.27;;
19221;SDS011;9745;50.828;4.378;2022-07-29T12:15:41;7.87;;;2.23;;
19221;SDS011;9745;50.828;4.378;2022-07-29T12:18:16;3.47;;;2.40;;
19221;SDS011;9745;50.828;4.378;2022-07-29T12:20:43;6.80;;;2.33;;
19221;SDS011;9745;50.828;4.378;2022-07-29T12:23:10;5.30;;;2.20;;
19221;SDS011;9745;50.828;4.378;2022-07-29T12:25:40;5.57;;;2.60;;
19221;SDS011;9745;50.828;4.378;2022-07-29T12:28:07;10.23;;;3.10;;
19221;SDS011;9745;50.828;4.378;2022-07-29T12:30:38;6.40;;;2.93;;
19221;SDS011;9745;50.828;4.378;2022-07-29T12:33:11;5.47;;;2.87;;
19221;SDS011;9745;50.828;4.378;2022-07-29T12:35:37;5.90;;;2.77;;
19221;SDS011;9745;50.828;4.378;2022-07-29T12:38:04;4.53;;;2.50;;
19221;SDS011;9745;50.828;4.378;2022-07-29T12:40:30;4.47;;;2.30;;
19221;SDS011;9745;50.828;4.378;2022-07-29T12:43:06;6.43;;;2.33;;
19221;SDS011;9745;50.828;4.378;2022-07-29T12:45:32;8.67;;;2.43;;
19221;SDS011;9745;50.828;4.378;2022-07-29T12:47:58;7.03;;;2.63;;
19221;SDS011;9745;50.828;4.378;2022-07-29T12:50:24;10.23;;;3.10;;
19221;SDS011;9745;50.828;4.378;2022-07-29T12:52:50;6.80;;;2.20;;
19221;SDS011;9745;50.828;4.378;2022-07-29T12:55:38;3.47;;;2.40;;
19221;SDS011;9745;50.828;4.378;2022-07-29T12:58:03;4.80;;;2.47;;
19221;SDS011;9745;50.828;4.378;2022-07-29T13:00:29;3.93;;;2.20;;
19221;SDS011;9745;50.828;4.378;2022-07-29T13:02:56;4.70;;;2.50;;
19221;SDS011;9745;50.828;4.378;2022-07-29T13:05:22;6.37;;;1.90;;
19221;SDS011;9745;50.828;4.378;2022-07-29T13:07:50;7.17;;;2.40;;
19221;SDS011;9745;50.828;4.378;2022-07-29T13:10:17;4.90;;;2.77;;
19221;SDS011;9745;50.828;4.378;2022-07-29T13:15:29;4.03;;;2.10;;
19221;SDS011;9745;50.828;4.378;2022-07-29T13:17:55;9.07;;;2.50;;
19221;SDS011;9745;50.828;4.378;2022-07-29T13:20:23;3.97;;;1.97;;
19221;SDS011;9745;50.828;4.378;2022-07-29T13:22:50;3.83;;;1.83;;
19221;SDS011;9745;50.828;4.378;2022-07-29T13:25:23;6.27;;;2.30;;
19221;SDS011;9745;50.828;4.378;2022-07-29T13:27:49;4.70;;;2.13;;
19221;SDS011;9745;50.828;4.378;2022-07-29T13:30:15;4.70;;;1.93;;
19221;SDS011;9745;50.828;4.378;2022-07-29T13:32:41;13.13;;;2.40;;
19221;SDS011;9745;50.828;4.378;2022-07-29T13:35:08;3.87;;;2.20;;
19221;SDS011;9745;50.828;4.378;2022-07-29T13:37:35;3.97;;;1.83;;
19221;SDS011;9745;50.828;4.378;2022-07-29T13:40:03;2.33;;;1.80;;
19221;SDS011;9745;50.828;4.378;2022-07-29T13:42:30;4.03;;;2.20;;
19221;SDS011;9745;50.828;4.378;2022-07-29T13:44:57;6.53;;;2.03;;
19221;SDS011;9745;50.828;4.378;2022-07-29T13:47:23;4.80;;;1.80;;
19221;SDS011;9745;50.828;4.378;2022-07-29T13:49:49;5.73;;;1.67;;
19221;SDS011;9745;50.828;4.378;2022-07-29T13:52:15;4.10;;;1.33;;
19221;SDS011;9745;50.828;4.378;2022-07-29T13:54:42;5.53;;;1.60;;
19221;SDS011;9745;50.828;4.378;2022-07-29T13:57:09;4.20;;;1.57;;
19221;SDS011;9745;50.828;4.378;2022-07-29T13:59:38;5.50;;;1.67;;
19221;SDS011;9745;50.828;4.378;2022-07-29T14:02:05;4.27;;;1.40;;
19221;SDS011;9745;50.828;4.378;2022-07-29T14:04:31;7.87;;;1.67;;
19221;SDS011;9745;50.828;4.378;2022-07-29T14:06:57;5.20;;;1.70;;
19221;SDS011;9745;50.828;4.378;2022-07-29T14:09:23;4.50;;;1.50;;
19221;SDS011;9745;50.828;4.378;2022-07-29T14:11:49;2.30;;;1.60;;
19221;SDS011;9745;50.828;4.378;2022-07-29T14:14:16;2.80;;;1.70;;
19221;SDS011;9745;50.828;4.378;2022-07-29T14:16:42;2.60;;;1.80;;
19221;SDS011;9745;50.828;4.378;2022-07-29T14:19:08;3.20;;;1.43;;
19221;SDS011;9745;50.828;4.378;2022-07-29T14:21:35;5.07;;;1.40;;
19221;SDS011;9745;50.828;4.378;2022-07-29T14:24:02;3.53;;;1.73;;
19221;SDS011;9745;50.828;4.378;2022-07-29T14:26:28;3.87;;;1.30;;
19221;SDS011;9745;50.828;4.378;2022-07-29T14:28:54;2.70;;;1.60;;
19221;SDS011;9745;50.828;4.378;2022-07-29T14:31:20;6.57;;;1.70;;
19221;SDS011;9745;50.828;4.378;2022-07-29T14:33:46;3.87;;;1.73;;
19221;SDS011;9745;50.828;4.378;2022-07-29T14:36:12;4.13;;;1.77;;
19221;SDS011;9745;50.828;4.378;2022-07-29T14:38:39;4.77;;;1.60;;
19221;SDS011;9745;50.828;4.378;2022-07-29T14:41:05;7.23;;;1.97;;
19221;SDS011;9745;50.828;4.378;2022-07-29T14:43:31;4.83;;;1.80;;
19221;SDS011;9745;50.828;4.378;2022-07-29T14:45:57;3.93;;;1.60;;
19221;SDS011;9745;50.828;4.378;2022-07-29T14:48:23;4.90;;;1.60;;
19221;SDS011;9745;50.828;4.378;2022-07-29T14:50:49;3.43;;;1.43;;
19221;SDS011;9745;50.828;4.378;2022-07-29T14:53:16;5.90;;;1.70;;
19221;SDS011;9745;50.828;4.378;2022-07-29T14:55:42;2.53;;;1.20;;
19221;SDS011;9745;50.828;4.378;2022-07-29T14:58:08;5.47;;;1.37;;
19221;SDS011;9745;50.828;4.378;2022-07-29T15:00:34;3.83;;;1.63;;
19221;SDS011;9745;50.828;4.378;2022-07-29T15:03:01;4.23;;;1.50;;
19221;SDS011;9745;50.828;4.378;2022-07-29T15:05:28;4.67;;;1.70;;
19221;SDS011;9745;50.828;4.378;2022-07-29T15:07:54;4.83;;;1.63;;
19221;SDS011;9745;50.828;4.378;2022-07-29T15:10:20;4.43;;;1.60;;
19221;SDS011;9745;50.828;4.378;2022-07-29T15:12:46;2.90;;;1.77;;
19221;SDS011;9745;50.828;4.378;2022-07-29T15:15:12;2.70;;;1.50;;
19221;SDS011;9745;50.828;4.378;2022-07-29T15:17:39;7.83;;;1.77;;
19221;SDS011;9745;50.828;4.378;2022-07-29T15:20:05;4.40;;;1.53;;
19221;SDS011;9745;50.828;4.378;2022-07-29T15:22:31;3.17;;;1.73;;
19221;SDS011;9745;50.828;4.378;2022-07-29T15:24:57;4.87;;;1.70;;
19221;SDS011;9745;50.828;4.378;2022-07-29T15:27:23;3.87;;;2.10;;
19221;SDS011;9745;50.828;4.378;2022-07-29T15:29:50;4.23;;;1.60;;
19221;SDS011;9745;50.828;4.378;2022-07-29T15:32:16;5.00;;;1.60;;
19221;SDS011;9745;50.828;4.378;2022-07-29T15:34:42;4.83;;;1.80;;
19221;SDS011;9745;50.828;4.378;2022-07-29T15:37:08;4.47;;;1.87;;